createdAt,value
2024-03-08T00:02:03.852Z,56.17
2024-03-08T00:04:31.316Z,43.73
2024-03-08T00:06:58.749Z,47.10
2024-03-08T00:09:27.757Z,44.63
2024-03-08T00:11:55.612Z,43.67
2024-03-08T00:14:23.101Z,44.40
2024-03-08T00:16:50.583Z,44.80
2024-03-08T00:19:18.405Z,46.23
2024-03-08T00:21:45.943Z,43.87
2024-03-08T00:24:13.415Z,48.83
2024-03-08T00:26:40.817Z,41.53
2024-03-08T00:29:08.755Z,42.60
2024-03-08T00:31:36.529Z,46.53
2024-03-08T00:34:04.001Z,44.33
2024-03-08T00:36:31.508Z,45.47
2024-03-08T00:39:00.758Z,44.83
2024-03-08T00:41:28.275Z,42.80
2024-03-08T00:43:55.761Z,42.90
2024-03-08T00:46:23.137Z,41.30
2024-03-08T00:48:50.692Z,41.20
2024-03-08T00:51:18.302Z,41.53
2024-03-08T00:53:45.762Z,40.30
2024-03-08T00:56:13.212Z,41.03
2024-03-08T00:58:41.106Z,46.80
2024-03-08T01:01:08.522Z,47.53
2024-03-08T01:03:35.905Z,46.60
2024-03-08T01:06:03.464Z,43.27
2024-03-08T01:08:30.999Z,42.10
2024-03-08T01:10:58.744Z,43.40
2024-03-08T01:13:26.144Z,43.83
2024-03-08T01:15:53.562Z,46.83
2024-03-08T01:18:21.144Z,43.37
2024-03-08T01:20:48.704Z,43.80
2024-03-08T01:23:16.158Z,43.10
2024-03-08T01:25:44.858Z,53.50
2024-03-08T01:28:13.771Z,45.53
2024-03-08T01:30:42.856Z,45.27
2024-03-08T01:33:10.352Z,44.07
2024-03-08T01:35:37.842Z,43.17
2024-03-08T01:38:05.944Z,50.50
2024-03-08T01:40:34.976Z,44.77
2024-03-08T01:43:04.451Z,48.33
2024-03-08T01:45:33.498Z,44.60
2024-03-08T01:48:01.222Z,45.33
2024-03-08T01:50:28.830Z,42.27
2024-03-08T01:52:57.886Z,45.83
2024-03-08T01:55:25.296Z,41.63
2024-03-08T01:57:55.679Z,44.30
2024-03-08T02:00:23.189Z,48.17
2024-03-08T02:02:51.530Z,43.80
2024-03-08T02:05:18.987Z,45.83
2024-03-08T02:07:46.446Z,49.53
2024-03-08T02:10:19.729Z,45.63
2024-03-08T02:12:48.745Z,44.40
2024-03-08T02:15:16.326Z,43.43
2024-03-08T02:17:43.961Z,44.40
2024-03-08T02:20:13.363Z,43.50
2024-03-08T02:22:41.764Z,43.73
2024-03-08T02:25:09.560Z,43.57
2024-03-08T02:27:36.986Z,43.57
2024-03-08T02:30:04.658Z,45.03
2024-03-08T02:32:33.776Z,49.03
2024-03-08T02:35:01.572Z,45.90
2024-03-08T02:37:29.149Z,45.70
2024-03-08T02:39:56.852Z,42.77
2024-03-08T02:42:24.332Z,46.90
2024-03-08T02:44:52.839Z,41.50
2024-03-08T02:47:21.652Z,45.03
2024-03-08T02:49:51.207Z,43.90
2024-03-08T02:52:18.637Z,43.27
2024-03-08T02:54:47.875Z,47.70
2024-03-08T02:57:16.109Z,49.03
2024-03-08T02:59:43.897Z,48.40
2024-03-08T03:02:11.303Z,49.17
2024-03-08T03:04:40.264Z,49.30
2024-03-08T03:07:07.691Z,46.17
2024-03-08T03:09:35.179Z,49.13
2024-03-08T03:12:03.443Z,46.33
2024-03-08T03:14:30.872Z,50.87
2024-03-08T03:16:58.257Z,48.80
2024-03-08T03:19:25.721Z,47.90
2024-03-08T03:21:53.786Z,45.57
2024-03-08T03:24:22.192Z,47.20
2024-03-08T03:26:50.486Z,46.93
2024-03-08T03:29:18.056Z,46.50
2024-03-08T03:31:48.164Z,48.90
2024-03-08T03:34:16.412Z,46.77
2024-03-08T03:36:45.531Z,50.60
2024-03-08T03:39:14.673Z,48.97
2024-03-08T03:41:42.078Z,46.80
2024-03-08T03:44:10.761Z,47.07
2024-03-08T03:46:38.201Z,47.13
2024-03-08T03:49:05.693Z,50.33
2024-03-08T03:51:33.079Z,52.53
2024-03-08T03:54:00.560Z,46.80
2024-03-08T03:56:28.079Z,46.90
2024-03-08T03:58:55.584Z,47.93
2024-03-08T04:01:23.067Z,46.87
2024-03-08T04:03:50.474Z,49.93
2024-03-08T04:06:18.013Z,52.07
2024-03-08T04:08:45.548Z,50.03
2024-03-08T04:11:12.976Z,57.13
2024-03-08T04:13:40.357Z,48.27
2024-03-08T04:16:09.078Z,49.37
2024-03-08T04:18:36.794Z,49.80
2024-03-08T04:21:04.414Z,52.30
2024-03-08T04:23:32.121Z,47.57
2024-03-08T04:25:59.490Z,50.33
2024-03-08T04:28:27.332Z,53.33
2024-03-08T04:30:55.656Z,51.17
2024-03-08T04:33:24.393Z,51.77
2024-03-08T04:35:52.168Z,53.07
2024-03-08T04:38:20.116Z,50.40
2024-03-08T04:40:47.499Z,50.83
2024-03-08T04:43:15.945Z,46.97
2024-03-08T04:45:49.575Z,49.30
2024-03-08T04:48:17.118Z,51.40
2024-03-08T04:50:45.895Z,51.07
2024-03-08T04:53:13.598Z,52.30
2024-03-08T04:55:41.113Z,53.40
2024-03-08T04:58:08.586Z,50.40
2024-03-08T05:00:36.113Z,50.03
2024-03-08T05:03:03.681Z,50.90
2024-03-08T05:05:31.226Z,52.37
2024-03-08T05:07:58.649Z,49.93
2024-03-08T05:10:26.104Z,54.03
2024-03-08T05:12:55.565Z,48.77
2024-03-08T05:15:22.694Z,55.20
2024-03-08T05:17:50.736Z,53.63
2024-03-08T05:20:18.231Z,52.00
2024-03-08T05:22:46.098Z,51.97
2024-03-08T05:25:15.123Z,49.87
2024-03-08T05:27:42.540Z,52.10
2024-03-08T05:30:11.778Z,55.70
2024-03-08T05:32:39.462Z,51.20
2024-03-08T05:35:08.114Z,53.50
2024-03-08T05:37:35.567Z,50.00
2024-03-08T05:40:04.240Z,52.43
2024-03-08T05:42:31.677Z,53.13
2024-03-08T05:44:59.844Z,50.87
2024-03-08T05:47:30.637Z,53.00
2024-03-08T05:49:56.556Z,53.60
2024-03-08T05:52:23.983Z,54.97
2024-03-08T05:54:51.433Z,52.43
2024-03-08T05:57:19.202Z,49.70
2024-03-08T05:59:46.630Z,51.60
2024-03-08T06:02:15.673Z,54.90
2024-03-08T06:04:43.645Z,54.30
2024-03-08T06:07:12.728Z,49.90
2024-03-08T06:09:40.399Z,52.73
2024-03-08T06:12:08.174Z,53.40
2024-03-08T06:14:35.629Z,52.50
2024-03-08T06:17:03.107Z,50.90
2024-03-08T06:19:30.615Z,54.70
2024-03-08T06:21:58.047Z,51.90
2024-03-08T06:24:25.577Z,52.33
2024-03-08T06:26:54.594Z,52.03
2024-03-08T06:29:21.994Z,55.60
2024-03-08T06:31:49.448Z,51.47
2024-03-08T06:34:18.550Z,51.80
2024-03-08T06:36:46.087Z,51.67
2024-03-08T06:39:13.597Z,53.00
2024-03-08T06:41:41.376Z,57.30
2024-03-08T06:44:09.905Z,50.50
2024-03-08T06:46:39.091Z,51.73
2024-03-08T06:49:08.202Z,53.93
2024-03-08T06:51:35.637Z,53.70
2024-03-08T06:54:04.796Z,53.87
2024-03-08T06:56:32.237Z,49.40
2024-03-08T06:59:03.371Z,54.37
2024-03-08T07:01:35.920Z,52.90
2024-03-08T07:04:04.996Z,50.27
2024-03-08T07:06:34.400Z,48.80
2024-03-08T07:09:02.202Z,52.93
2024-03-08T07:11:29.683Z,49.73
2024-03-08T07:13:57.097Z,53.77
2024-03-08T07:16:24.963Z,46.17
2024-03-08T07:18:53.858Z,54.90
2024-03-08T07:21:23.406Z,49.30
2024-03-08T07:24:04.971Z,50.53
2024-03-08T07:26:32.510Z,50.30
2024-03-08T07:29:01.404Z,53.50
2024-03-08T07:31:30.499Z,47.50
2024-03-08T07:33:59.712Z,50.23
2024-03-08T07:36:27.170Z,51.97
2024-03-08T07:38:54.832Z,51.60
2024-03-08T07:41:23.412Z,47.80
2024-03-08T07:43:50.844Z,49.00
2024-03-08T07:46:19.466Z,47.20
2024-03-08T07:48:47.287Z,51.03
2024-03-08T07:51:17.146Z,52.13
2024-03-08T07:53:44.729Z,46.67
2024-03-08T07:56:13.850Z,48.50
2024-03-08T07:58:44.455Z,47.23
2024-03-08T08:01:19.484Z,48.00
2024-03-08T08:03:49.525Z,47.43
2024-03-08T08:06:17.404Z,48.20
2024-03-08T08:08:44.965Z,49.33
2024-03-08T08:11:18.796Z,48.40
2024-03-08T08:13:46.348Z,47.53
2024-03-08T08:16:14.632Z,52.73
2024-03-08T08:18:42.250Z,47.47
2024-03-08T08:21:09.636Z,48.80
2024-03-08T08:23:37.298Z,46.47
2024-03-08T08:26:05.625Z,45.40
2024-03-08T08:28:33.033Z,46.37
2024-03-08T08:31:00.537Z,45.60
2024-03-08T08:33:27.971Z,44.83
2024-03-08T08:35:55.724Z,45.23
2024-03-08T08:38:24.106Z,43.80
2024-03-08T08:40:51.589Z,46.30
2024-03-08T08:43:20.618Z,46.27
2024-03-08T08:45:49.686Z,49.87
2024-03-08T08:48:17.162Z,48.17
2024-03-08T08:50:45.945Z,47.60
2024-03-08T08:53:13.431Z,44.50
2024-03-08T08:55:41.769Z,46.37
2024-03-08T08:58:09.220Z,48.83
2024-03-08T09:00:36.690Z,44.77
2024-03-08T09:03:04.207Z,44.00
2024-03-08T09:05:33.155Z,47.03
2024-03-08T09:08:01.936Z,46.80
2024-03-08T09:10:31.433Z,46.53
2024-03-08T09:12:58.872Z,50.23
2024-03-08T09:15:28.035Z,47.63
2024-03-08T09:17:55.434Z,45.03
2024-03-08T09:20:22.913Z,44.50
2024-03-08T09:22:50.363Z,48.70
2024-03-08T09:25:17.855Z,51.13
2024-03-08T09:27:47.095Z,45.77
2024-03-08T09:30:16.026Z,45.77
2024-03-08T09:32:44.589Z,45.63
2024-03-08T09:35:13.968Z,44.90
2024-03-08T09:37:41.057Z,45.93
2024-03-08T09:40:10.178Z,47.40
2024-03-08T09:42:40.176Z,46.83
2024-03-08T09:45:09.170Z,46.90
2024-03-08T09:47:38.257Z,45.23
2024-03-08T09:50:05.910Z,44.20
2024-03-08T09:52:33.963Z,41.93
2024-03-08T09:55:02.613Z,44.03
2024-03-08T09:57:30.049Z,45.07
2024-03-08T09:59:57.559Z,43.37
2024-03-08T10:02:25.145Z,43.07
2024-03-08T10:04:54.454Z,44.30
2024-03-08T10:07:22.710Z,45.63
2024-03-08T10:09:51.851Z,43.67
2024-03-08T10:12:20.263Z,42.90
2024-03-08T10:14:47.915Z,44.20
2024-03-08T10:17:15.321Z,42.33
2024-03-08T10:19:45.849Z,45.20
2024-03-08T10:22:14.910Z,43.87
2024-03-08T10:24:42.344Z,42.00
2024-03-08T10:27:09.813Z,41.90
2024-03-08T10:29:39.404Z,46.23
2024-03-08T10:32:08.338Z,42.60
2024-03-08T10:34:35.793Z,48.23
2024-03-08T10:37:06.816Z,46.07
2024-03-08T10:39:38.085Z,41.30
2024-03-08T10:42:06.557Z,43.53
2024-03-08T10:44:44.468Z,41.77
2024-03-08T10:47:13.445Z,42.33
2024-03-08T10:49:43.280Z,45.03
2024-03-08T10:52:11.496Z,41.23
2024-03-08T10:54:45.128Z,41.50
2024-03-08T10:57:12.691Z,41.87
2024-03-08T10:59:40.557Z,42.50
2024-03-08T11:02:08.233Z,39.70
2024-03-08T11:04:37.362Z,39.60
2024-03-08T11:07:08.298Z,41.10
2024-03-08T11:09:39.477Z,41.57
2024-03-08T11:12:26.995Z,40.27
2024-03-08T11:14:55.386Z,37.50
2024-03-08T11:17:38.234Z,41.50
2024-03-08T11:20:07.258Z,38.47
2024-03-08T11:22:35.338Z,45.87
2024-03-08T11:25:07.996Z,40.00
2024-03-08T11:27:35.458Z,39.20
2024-03-08T11:30:17.167Z,39.73
2024-03-08T11:32:43.775Z,37.87
2024-03-08T11:35:13.587Z,38.63
2024-03-08T11:37:41.167Z,38.20
2024-03-08T11:40:10.169Z,37.17
2024-03-08T11:42:38.420Z,37.67
2024-03-08T11:45:08.999Z,39.00
2024-03-08T11:47:36.743Z,39.00
2024-03-08T11:50:04.442Z,38.27
2024-03-08T11:52:32.537Z,36.13
2024-03-08T11:54:59.935Z,37.53
2024-03-08T11:57:27.361Z,36.50
2024-03-08T11:59:57.918Z,36.97
2024-03-08T12:02:26.810Z,36.20
2024-03-08T12:05:00.717Z,37.83
2024-03-08T12:07:32.676Z,38.13
2024-03-08T12:10:19.695Z,38.50
2024-03-08T12:12:54.131Z,38.23
2024-03-08T12:15:22.918Z,36.53
2024-03-08T12:17:51.760Z,40.33
2024-03-08T12:20:22.059Z,37.47
2024-03-08T12:22:50.158Z,37.20
2024-03-08T12:25:17.846Z,37.17
2024-03-08T12:27:45.436Z,36.93
2024-03-08T12:30:23.552Z,36.93
2024-03-08T12:32:54.087Z,37.33
2024-03-08T12:35:23.353Z,40.33
2024-03-08T12:37:53.768Z,37.43
2024-03-08T12:40:22.808Z,34.37
2024-03-08T12:42:50.448Z,37.27
2024-03-08T12:45:17.882Z,37.70
2024-03-08T12:47:45.369Z,38.20
2024-03-08T12:50:12.726Z,36.50
2024-03-08T12:52:40.241Z,36.80
2024-03-08T12:55:07.869Z,36.53
2024-03-08T12:57:36.378Z,33.57
2024-03-08T13:00:04.589Z,34.40
2024-03-08T13:02:35.974Z,37.03
2024-03-08T13:05:05.099Z,35.97
2024-03-08T13:07:32.619Z,36.33
2024-03-08T13:10:00.730Z,34.70
2024-03-08T13:12:28.427Z,34.10
2024-03-08T13:14:59.017Z,35.53
2024-03-08T13:17:26.618Z,35.60
2024-03-08T13:19:55.882Z,34.37
2024-03-08T13:22:23.990Z,37.23
2024-03-08T13:24:54.303Z,47.00
2024-03-08T13:27:23.038Z,37.60
2024-03-08T13:29:50.538Z,40.40
2024-03-08T13:32:18.218Z,35.63
2024-03-08T13:34:48.594Z,38.60
2024-03-08T13:37:17.694Z,37.47
2024-03-08T13:39:45.249Z,38.70
2024-03-08T13:42:13.993Z,37.67
2024-03-08T13:44:42.980Z,37.10
2024-03-08T13:47:12.192Z,38.13
2024-03-08T13:49:39.757Z,45.43
2024-03-08T13:52:08.879Z,39.00
2024-03-08T13:54:36.667Z,35.70
2024-03-08T13:57:05.967Z,41.43
2024-03-08T13:59:34.035Z,39.30
2024-03-08T14:02:03.011Z,36.10
2024-03-08T14:04:30.602Z,38.20
2024-03-08T14:07:01.636Z,39.80
2024-03-08T14:09:30.125Z,37.87
2024-03-08T14:11:57.520Z,38.10
2024-03-08T14:14:25.001Z,43.70
2024-03-08T14:16:56.900Z,41.17
2024-03-08T14:19:24.681Z,37.70
2024-03-08T14:21:53.748Z,37.90
2024-03-08T14:24:22.670Z,40.03
2024-03-08T14:26:50.102Z,38.20
2024-03-08T14:29:19.015Z,38.67
2024-03-08T14:31:46.552Z,49.30
2024-03-08T14:34:15.571Z,40.37
2024-03-08T14:36:43.057Z,42.77
2024-03-08T14:39:10.517Z,39.43
2024-03-08T14:41:38.048Z,40.53
2024-03-08T14:44:05.614Z,41.80
2024-03-08T14:46:33.200Z,42.77
2024-03-08T14:49:00.649Z,40.17
2024-03-08T14:51:28.835Z,39.63
2024-03-08T14:53:56.344Z,40.40
2024-03-08T14:56:23.766Z,49.33
2024-03-08T14:58:52.362Z,39.13
2024-03-08T15:01:24.840Z,41.13
2024-03-08T15:03:52.320Z,42.83
2024-03-08T15:06:22.063Z,44.97
2024-03-08T15:08:49.609Z,37.17
2024-03-08T15:11:18.790Z,39.00
2024-03-08T15:13:47.302Z,38.87
2024-03-08T15:16:16.489Z,40.37
2024-03-08T15:18:47.768Z,44.50
2024-03-08T15:21:17.471Z,38.50
2024-03-08T15:23:46.957Z,38.50
2024-03-08T15:26:14.423Z,39.80
2024-03-08T15:28:41.895Z,41.33
2024-03-08T15:31:09.336Z,44.63
2024-03-08T15:33:39.185Z,39.30
2024-03-08T15:36:08.457Z,40.50
2024-03-08T15:38:35.884Z,36.53
2024-03-08T15:41:04.472Z,37.50
2024-03-08T15:43:33.603Z,37.47
2024-03-08T15:46:02.754Z,40.03
2024-03-08T15:48:31.937Z,43.73
2024-03-08T15:50:59.494Z,37.93
2024-03-08T15:53:31.355Z,36.80
2024-03-08T15:55:59.839Z,37.43
2024-03-08T15:58:27.428Z,37.13
2024-03-08T16:00:56.633Z,38.63
2024-03-08T16:03:24.266Z,37.77
2024-03-08T16:05:52.582Z,38.57
2024-03-08T16:08:21.291Z,40.20
2024-03-08T16:10:53.992Z,36.97
2024-03-08T16:13:23.274Z,36.40
2024-03-08T16:15:52.119Z,42.43
2024-03-08T16:18:24.183Z,42.20
2024-03-08T16:20:52.132Z,40.67
2024-03-08T16:23:19.850Z,39.17
2024-03-08T16:25:48.020Z,39.83
2024-03-08T16:28:15.677Z,38.60
2024-03-08T16:30:45.333Z,56.90
2024-03-08T16:33:14.494Z,37.60
2024-03-08T16:35:43.793Z,39.93
2024-03-08T16:38:13.335Z,46.17
2024-03-08T16:40:41.247Z,41.27
2024-03-08T16:43:15.818Z,39.60
2024-03-08T16:45:43.510Z,36.87
2024-03-08T16:48:11.845Z,38.23
2024-03-08T16:50:41.316Z,52.73
2024-03-08T16:53:09.163Z,54.73
2024-03-08T16:55:36.657Z,40.87
2024-03-08T16:58:06.063Z,54.13
2024-03-08T17:00:33.926Z,36.90
2024-03-08T17:03:03.463Z,44.07
2024-03-08T17:05:31.513Z,49.57
2024-03-08T17:08:04.550Z,41.47
2024-03-08T17:10:32.652Z,47.03
2024-03-08T17:13:01.152Z,54.67
2024-03-08T17:15:30.138Z,42.80
2024-03-08T17:18:02.711Z,35.80
2024-03-08T17:20:31.112Z,40.00
2024-03-08T17:23:02.003Z,40.60
2024-03-08T17:25:28.144Z,40.00
2024-03-08T17:28:00.560Z,40.07
2024-03-08T17:30:29.233Z,39.67
2024-03-08T17:33:00.317Z,41.60
2024-03-08T17:35:27.782Z,40.07
2024-03-08T17:37:59.534Z,42.00
2024-03-08T17:40:28.354Z,43.00
2024-03-08T17:43:02.344Z,40.17
2024-03-08T17:45:30.332Z,45.40
2024-03-08T17:47:57.832Z,41.20
2024-03-08T17:50:25.362Z,36.83
2024-03-08T17:52:54.404Z,37.37
2024-03-08T17:55:23.533Z,36.10
2024-03-08T17:57:52.227Z,37.07
2024-03-08T18:00:25.564Z,35.23
2024-03-08T18:02:53.458Z,37.93
2024-03-08T18:05:22.940Z,37.43
2024-03-08T18:07:50.390Z,40.20
2024-03-08T18:10:21.910Z,49.27
2024-03-08T18:12:51.587Z,40.70
2024-03-08T18:15:24.675Z,38.10
2024-03-08T18:17:52.848Z,37.23
2024-03-08T18:20:29.379Z,39.77
2024-03-08T18:23:00.822Z,41.53
2024-03-08T18:25:29.622Z,39.30
2024-03-08T18:28:02.513Z,40.90
2024-03-08T18:30:29.972Z,39.90
2024-03-08T18:32:57.433Z,35.83
2024-03-08T18:35:24.914Z,38.63
2024-03-08T18:37:52.634Z,35.93
2024-03-08T18:40:23.921Z,37.30
2024-03-08T18:42:52.885Z,38.20
2024-03-08T18:45:22.219Z,42.10
2024-03-08T18:47:50.535Z,43.80
2024-03-08T18:50:19.244Z,41.00
2024-03-08T18:52:48.381Z,41.40
2024-03-08T18:55:20.531Z,37.83
2024-03-08T18:57:48.101Z,35.87
2024-03-08T19:00:22.358Z,33.80
2024-03-08T19:02:51.005Z,35.53
2024-03-08T19:05:18.914Z,40.50
2024-03-08T19:07:47.381Z,43.77
2024-03-08T19:10:16.975Z,35.17
2024-03-08T19:12:45.408Z,41.57
2024-03-08T19:15:12.842Z,39.45
2024-03-08T19:17:40.289Z,36.27
2024-03-08T19:20:12.627Z,39.03
2024-03-08T19:22:40.759Z,34.33
2024-03-08T19:25:10.025Z,40.33
2024-03-08T19:27:37.917Z,39.30
2024-03-08T19:30:06.435Z,36.07
2024-03-08T19:32:35.106Z,38.53
2024-03-08T19:35:04.894Z,38.07
2024-03-08T19:37:32.411Z,40.67
2024-03-08T19:40:00.974Z,41.93
2024-03-08T19:42:28.367Z,40.60
2024-03-08T19:44:55.812Z,42.67
2024-03-08T19:47:26.881Z,47.80
2024-03-08T19:49:54.436Z,35.80
2024-03-08T19:52:22.681Z,36.40
2024-03-08T19:54:50.340Z,38.77
2024-03-08T19:57:17.782Z,44.10
2024-03-08T19:59:46.913Z,48.50
2024-03-08T20:02:14.517Z,42.30
2024-03-08T20:04:41.984Z,34.80
2024-03-08T20:07:09.365Z,37.57
2024-03-08T20:09:37.377Z,38.13
2024-03-08T20:12:06.542Z,38.27
2024-03-08T20:14:36.073Z,38.43
2024-03-08T20:17:05.070Z,45.23
2024-03-08T20:19:39.690Z,37.17
2024-03-08T20:22:07.223Z,32.87
2024-03-08T20:24:34.627Z,41.60
2024-03-08T20:27:03.805Z,32.87
2024-03-08T20:29:32.283Z,35.37
2024-03-08T20:31:59.806Z,30.90
2024-03-08T20:34:27.365Z,33.80
2024-03-08T20:36:54.877Z,30.70
2024-03-08T20:39:22.324Z,30.10
2024-03-08T20:41:50.288Z,32.37
2024-03-08T20:44:17.676Z,34.33
2024-03-08T20:46:46.192Z,32.60
2024-03-08T20:49:14.453Z,33.60
2024-03-08T20:51:44.989Z,31.60
2024-03-08T20:54:12.488Z,31.67
2024-03-08T20:56:42.287Z,32.53
2024-03-08T20:59:10.707Z,31.63
2024-03-08T21:01:38.342Z,32.50
2024-03-08T21:04:06.623Z,33.70
2024-03-08T21:06:37.058Z,33.10
2024-03-08T21:09:06.110Z,32.03
2024-03-08T21:11:35.477Z,31.20
2024-03-08T21:14:03.001Z,29.90
2024-03-08T21:16:30.429Z,32.00
2024-03-08T21:18:57.893Z,34.10
2024-03-08T21:21:26.679Z,32.17
2024-03-08T21:23:55.982Z,35.63
2024-03-08T21:26:23.594Z,33.33
2024-03-08T21:28:51.143Z,34.00
2024-03-08T21:31:20.377Z,31.17
2024-03-08T21:33:49.168Z,35.00
2024-03-08T21:36:17.904Z,32.40
2024-03-08T21:38:45.695Z,34.83
2024-03-08T21:41:13.910Z,31.27
2024-03-08T21:43:41.472Z,32.07
2024-03-08T21:46:10.175Z,32.30
2024-03-08T21:48:37.702Z,33.37
2024-03-08T21:51:06.505Z,32.40
2024-03-08T21:53:36.158Z,32.47
2024-03-08T21:56:05.479Z,33.00
2024-03-08T21:58:35.208Z,31.43
2024-03-08T22:01:03.153Z,32.47
2024-03-08T22:03:32.548Z,33.10
2024-03-08T22:06:00.255Z,30.60
2024-03-08T22:08:27.728Z,34.10
2024-03-08T22:10:56.763Z,34.33
2024-03-08T22:13:24.351Z,36.43
2024-03-08T22:15:53.237Z,34.73
2024-03-08T22:18:21.142Z,37.13
2024-03-08T22:20:50.552Z,32.90
2024-03-08T22:23:21.612Z,32.63
2024-03-08T22:25:51.264Z,32.30
2024-03-08T22:28:20.334Z,33.27
2024-03-08T22:30:47.788Z,33.93
2024-03-08T22:33:15.271Z,34.70
2024-03-08T22:35:43.370Z,31.13
2024-03-08T22:38:12.692Z,34.33
2024-03-08T22:40:40.249Z,33.43
2024-03-08T22:43:07.782Z,31.37
2024-03-08T22:45:35.413Z,34.60
2024-03-08T22:48:04.506Z,32.13
2024-03-08T22:50:31.998Z,34.10
2024-03-08T22:53:01.009Z,39.37
2024-03-08T22:55:28.600Z,37.07
2024-03-08T22:57:55.978Z,35.10
2024-03-08T23:00:28.642Z,35.53
2024-03-08T23:02:57.676Z,35.00
2024-03-08T23:05:27.781Z,33.80
2024-03-08T23:07:56.030Z,34.30
2024-03-08T23:10:25.411Z,35.57
2024-03-08T23:12:54.044Z,35.87
2024-03-08T23:15:23.400Z,33.77
2024-03-08T23:17:55.469Z,34.33
2024-03-08T23:20:25.079Z,32.70
2024-03-08T23:22:52.838Z,34.13
2024-03-08T23:25:20.968Z,35.57
2024-03-08T23:27:51.588Z,35.03
2024-03-08T23:30:20.785Z,34.60
2024-03-08T23:32:48.382Z,34.30
2024-03-08T23:35:16.022Z,37.33
2024-03-08T23:37:49.133Z,33.97
2024-03-08T23:43:16.538Z,37.63
2024-03-08T23:45:44.498Z,34.93
2024-03-08T23:48:12.323Z,37.53
2024-03-08T23:50:39.822Z,34.80
2024-03-08T23:53:08.558Z,35.50
2024-03-08T23:55:36.906Z,35.40
2024-03-08T23:58:06.072Z,34.13
